createdAt,value
2018-06-15T00:00:12.772Z,89.40
2018-06-15T00:02:52.813Z,89.56
2018-06-15T00:05:27.312Z,90.06
2018-06-15T00:08:01.921Z,89.56
2018-06-15T00:10:36.318Z,89.18
2018-06-15T00:13:10.926Z,89.43
2018-06-15T00:15:45.248Z,88.95
2018-06-15T00:18:19.931Z,88.62
2018-06-15T00:20:54.491Z,89.07
2018-06-15T00:23:29.260Z,88.71
2018-06-15T00:26:04.079Z,88.34
2018-06-15T00:28:38.989Z,88.08
2018-06-15T00:31:13.491Z,88.59
2018-06-15T00:33:47.873Z,88.77
2018-06-15T00:36:22.313Z,89.58
2018-06-15T00:38:56.716Z,89.39
2018-06-15T00:41:31.536Z,89.30
2018-06-15T00:44:06.276Z,89.34
2018-06-15T00:46:41.249Z,89.38
2018-06-15T00:49:15.770Z,88.63
2018-06-15T00:51:50.082Z,88.98
2018-06-15T00:54:24.632Z,88.01
2018-06-15T00:57:10.365Z,88.36
2018-06-15T00:59:45.079Z,87.44
2018-06-15T01:02:19.765Z,88.01
2018-06-15T01:04:54.213Z,88.22
2018-06-15T01:07:28.705Z,88.45
2018-06-15T01:10:03.269Z,89.32
2018-06-15T01:12:37.893Z,88.54
2018-06-15T01:15:12.449Z,89.10
2018-06-15T01:17:47.277Z,89.77
2018-06-15T01:20:21.724Z,89.66
2018-06-15T01:22:56.389Z,88.95
2018-06-15T01:25:31.096Z,89.73
2018-06-15T01:28:05.772Z,88.84
2018-06-15T01:30:40.320Z,89.16
2018-06-15T01:33:14.776Z,89.50
2018-06-15T01:35:49.274Z,89.22
2018-06-15T01:38:23.731Z,89.40
2018-06-15T01:40:58.328Z,89.55
2018-06-15T01:43:32.941Z,89.51
2018-06-15T01:49:15.276Z,89.13
2018-06-15T01:51:49.833Z,89.70
2018-06-15T01:54:24.353Z,88.57
2018-06-15T01:56:58.830Z,88.17
2018-06-15T01:59:33.377Z,88.59
2018-06-15T02:02:07.971Z,89.09
2018-06-15T02:04:42.384Z,88.58
2018-06-15T02:07:16.920Z,88.60
2018-06-15T02:09:51.836Z,88.24
2018-06-15T02:12:26.390Z,87.75
2018-06-15T02:15:00.768Z,88.27
2018-06-15T02:17:35.381Z,88.42
2018-06-15T02:20:09.712Z,88.17
2018-06-15T02:22:44.116Z,88.01
2018-06-15T02:25:18.544Z,88.73
2018-06-15T02:27:53.008Z,88.83
2018-06-15T02:30:27.824Z,88.28
2018-06-15T02:33:02.199Z,88.37
2018-06-15T02:35:39.802Z,88.66
2018-06-15T02:38:14.356Z,88.68
2018-06-15T02:40:48.971Z,88.77
2018-06-15T02:43:23.904Z,88.26
2018-06-15T02:45:58.323Z,89.06
2018-06-15T02:48:33.062Z,88.73
2018-06-15T02:51:07.839Z,88.17
2018-06-15T02:53:42.297Z,89.33
2018-06-15T02:56:16.892Z,89.32
2018-06-15T02:58:51.680Z,89.58
2018-06-15T03:01:26.173Z,88.96
2018-06-15T03:04:00.935Z,87.72
2018-06-15T03:06:35.484Z,88.44
2018-06-15T03:09:10.477Z,88.54
2018-06-15T03:11:44.964Z,88.06
2018-06-15T03:14:19.496Z,87.70
2018-06-15T03:16:53.972Z,87.60
2018-06-15T03:19:29.141Z,88.86
2018-06-15T03:22:03.524Z,90.04
2018-06-15T03:24:37.974Z,89.08
2018-06-15T03:27:12.516Z,88.71
2018-06-15T03:29:46.956Z,88.29
2018-06-15T03:32:21.532Z,89.24
2018-06-15T03:34:55.953Z,88.51
2018-06-15T03:37:30.453Z,89.01
2018-06-15T03:40:05.012Z,89.11
2018-06-15T03:42:39.701Z,90.00
2018-06-15T03:45:14.157Z,89.59
2018-06-15T03:47:48.900Z,88.97
2018-06-15T03:50:23.670Z,89.12
2018-06-15T03:52:58.198Z,88.83
2018-06-15T03:55:32.928Z,88.79
2018-06-15T03:58:07.797Z,89.15
2018-06-15T04:00:42.564Z,89.66
2018-06-15T04:03:17.347Z,88.69
2018-06-15T04:05:51.944Z,88.78
2018-06-15T04:08:26.822Z,87.73
2018-06-15T04:11:01.265Z,88.10
2018-06-15T04:13:36.012Z,89.42
2018-06-15T04:16:10.476Z,90.47
2018-06-15T04:18:44.999Z,90.04
2018-06-15T04:21:19.609Z,89.24
2018-06-15T04:23:54.172Z,88.47
2018-06-15T04:26:28.566Z,87.25
2018-06-15T04:29:02.987Z,87.65
2018-06-15T04:31:37.432Z,88.92
2018-06-15T04:34:12.041Z,90.30
2018-06-15T04:36:46.519Z,90.48
2018-06-15T04:39:21.281Z,90.22
2018-06-15T04:41:55.710Z,90.14
2018-06-15T04:44:30.350Z,90.43
2018-06-15T04:47:04.988Z,90.04
2018-06-15T04:49:40.276Z,89.59
2018-06-15T04:52:15.115Z,88.37
2018-06-15T04:54:50.349Z,87.98
2018-06-15T04:57:24.882Z,87.43
2018-06-15T05:00:00.317Z,88.00
2018-06-15T05:02:35.053Z,88.46
2018-06-15T05:05:09.753Z,87.95
2018-06-15T05:07:44.393Z,87.42
2018-06-15T05:10:19.116Z,87.19
2018-06-15T05:12:53.721Z,86.28
2018-06-15T05:15:28.373Z,84.20
2018-06-15T05:18:03.252Z,84.16
2018-06-15T05:20:37.640Z,83.40
2018-06-15T05:23:12.027Z,84.41
2018-06-15T05:25:46.725Z,85.06
2018-06-15T05:28:21.440Z,84.99
2018-06-15T05:30:56.168Z,84.55
2018-06-15T05:33:30.500Z,83.71
2018-06-15T05:36:05.041Z,83.95
2018-06-15T05:38:39.500Z,83.04
2018-06-15T05:41:13.974Z,84.34
2018-06-15T05:43:48.449Z,83.38
2018-06-15T05:46:23.066Z,83.47
2018-06-15T05:48:58.109Z,83.80
2018-06-15T05:51:32.861Z,81.52
2018-06-15T05:54:07.232Z,83.25
2018-06-15T05:56:41.584Z,78.72
2018-06-15T05:59:16.205Z,82.03
2018-06-15T06:01:50.703Z,82.40
2018-06-15T06:04:25.077Z,82.88
2018-06-15T06:06:59.724Z,81.94
2018-06-15T06:09:34.313Z,79.33
2018-06-15T06:12:08.840Z,80.14
2018-06-15T06:14:43.252Z,80.07
2018-06-15T06:17:17.981Z,78.17
2018-06-15T06:19:52.522Z,78.93
2018-06-15T06:22:27.220Z,81.78
2018-06-15T06:25:01.817Z,75.34
2018-06-15T06:27:36.445Z,75.88
2018-06-15T06:30:11.047Z,69.47
2018-06-15T06:32:45.649Z,69.77
2018-06-15T06:35:20.272Z,68.74
2018-06-15T06:37:55.116Z,68.31
2018-06-15T06:40:29.571Z,72.82
2018-06-15T06:43:04.073Z,73.99
2018-06-15T06:45:38.752Z,74.68
2018-06-15T06:48:13.592Z,72.92
2018-06-15T06:50:48.144Z,69.87
2018-06-15T06:53:22.704Z,73.89
2018-06-15T06:55:57.272Z,73.92
2018-06-15T06:58:31.780Z,71.18
2018-06-15T07:01:06.272Z,71.84
2018-06-15T07:03:40.791Z,70.19
2018-06-15T07:06:15.216Z,63.56
2018-06-15T07:08:49.721Z,62.27
2018-06-15T07:11:24.418Z,62.09
2018-06-15T07:13:58.848Z,62.27
2018-06-15T07:16:33.441Z,61.24
2018-06-15T07:19:07.796Z,62.19
2018-06-15T07:21:42.199Z,64.09
2018-06-15T07:24:16.732Z,64.52
2018-06-15T07:26:51.268Z,63.64
2018-06-15T07:29:25.660Z,59.94
2018-06-15T07:32:00.183Z,58.18
2018-06-15T07:34:34.616Z,62.29
2018-06-15T07:37:09.313Z,65.48
2018-06-15T07:39:43.861Z,62.29
2018-06-15T07:42:18.505Z,64.31
2018-06-15T07:44:53.189Z,63.29
2018-06-15T07:47:27.926Z,57.63
2018-06-15T07:50:02.541Z,55.39
2018-06-15T07:52:36.969Z,51.00
2018-06-15T07:55:11.452Z,49.74
2018-06-15T07:57:45.936Z,54.24
2018-06-15T08:00:20.495Z,61.03
2018-06-15T08:02:54.957Z,64.85
2018-06-15T08:05:29.564Z,63.76
2018-06-15T08:08:04.056Z,58.96
2018-06-15T08:10:38.592Z,58.12
2018-06-15T08:13:13.104Z,55.60
2018-06-15T08:15:47.723Z,46.17
2018-06-15T08:18:22.045Z,49.25
2018-06-15T08:20:56.617Z,52.81
2018-06-15T08:23:31.124Z,48.75
2018-06-15T08:26:05.805Z,46.95
2018-06-15T08:28:40.408Z,46.04
2018-06-15T08:31:15.061Z,44.98
2018-06-15T08:33:49.695Z,47.58
2018-06-15T08:36:24.049Z,43.12
2018-06-15T08:38:58.437Z,40.41
2018-06-15T08:41:32.965Z,38.28
2018-06-15T08:44:07.481Z,40.07
2018-06-15T08:46:42.033Z,43.67
2018-06-15T08:49:16.517Z,44.98
2018-06-15T08:51:50.918Z,45.04
2018-06-15T08:54:25.728Z,43.68
2018-06-15T08:57:05.139Z,41.31
2018-06-15T08:59:39.531Z,45.27
2018-06-15T09:02:13.886Z,41.45
2018-06-15T09:04:48.700Z,39.44
2018-06-15T09:07:23.419Z,41.04
2018-06-15T09:09:58.064Z,40.80
2018-06-15T09:12:32.571Z,37.73
2018-06-15T09:15:06.912Z,39.33
2018-06-15T09:17:41.309Z,41.02
2018-06-15T09:20:15.719Z,46.34
2018-06-15T09:22:50.428Z,47.40
2018-06-15T09:25:25.061Z,44.44
2018-06-15T09:27:59.567Z,44.63
2018-06-15T09:30:34.005Z,45.37
2018-06-15T09:33:08.370Z,48.84
2018-06-15T09:35:42.936Z,47.26
2018-06-15T09:38:17.486Z,46.15
2018-06-15T09:40:52.145Z,41.24
2018-06-15T09:43:26.840Z,49.13
2018-06-15T09:46:01.397Z,51.72
2018-06-15T09:48:35.904Z,48.36
2018-06-15T09:51:10.718Z,50.87
2018-06-15T09:53:45.336Z,52.16
2018-06-15T09:56:19.920Z,52.29
2018-06-15T09:58:56.038Z,53.83
2018-06-15T10:01:30.777Z,50.71
2018-06-15T10:04:05.201Z,52.74
2018-06-15T10:06:39.909Z,50.86
2018-06-15T10:09:14.384Z,52.89
2018-06-15T10:11:48.878Z,52.27
2018-06-15T10:14:23.254Z,51.93
2018-06-15T10:16:57.773Z,52.37
2018-06-15T10:19:32.545Z,54.13
2018-06-15T10:22:07.118Z,57.03
2018-06-15T10:24:41.479Z,55.00
2018-06-15T10:27:15.920Z,57.92
2018-06-15T10:29:50.383Z,57.33
2018-06-15T10:32:24.773Z,53.82
2018-06-15T10:34:59.236Z,55.83
2018-06-15T10:37:33.692Z,54.93
2018-06-15T10:40:08.148Z,52.46
2018-06-15T10:42:42.903Z,53.13
2018-06-15T10:45:17.456Z,52.42
2018-06-15T10:47:52.084Z,53.12
2018-06-15T10:50:26.724Z,52.41
2018-06-15T10:53:01.200Z,52.94
2018-06-15T10:55:35.769Z,51.95
2018-06-15T10:58:10.252Z,53.07
2018-06-15T11:00:44.716Z,54.54
2018-06-15T11:03:19.085Z,53.56
2018-06-15T11:05:53.932Z,48.36
2018-06-15T11:08:28.768Z,38.20
2018-06-15T11:11:03.428Z,42.03
2018-06-15T11:13:38.009Z,46.85
2018-06-15T11:16:12.941Z,48.54
2018-06-15T11:18:47.899Z,49.64
2018-06-15T11:21:25.424Z,44.63
2018-06-15T11:24:00.092Z,40.70
2018-06-15T11:26:44.101Z,35.23
2018-06-15T11:29:18.481Z,36.12
2018-06-15T11:31:53.063Z,40.13
2018-06-15T11:34:27.952Z,40.15
2018-06-15T11:37:02.513Z,35.26
2018-06-15T11:39:36.896Z,31.20
2018-06-15T11:42:11.496Z,34.81
2018-06-15T11:44:45.832Z,36.74
2018-06-15T11:47:20.564Z,35.50
2018-06-15T11:49:55.150Z,34.36
2018-06-15T11:52:29.669Z,35.47
2018-06-15T11:55:04.233Z,34.37
2018-06-15T11:57:38.649Z,38.33
2018-06-15T12:00:13.365Z,38.68
2018-06-15T12:02:48.020Z,40.68
2018-06-15T12:05:22.496Z,39.27
2018-06-15T12:07:56.926Z,42.38
2018-06-15T12:10:31.292Z,41.96
2018-06-15T12:13:05.640Z,40.51
2018-06-15T12:15:40.105Z,38.02
2018-06-15T12:18:14.652Z,37.16
2018-06-15T12:20:49.092Z,37.34
2018-06-15T12:23:23.548Z,37.23
2018-06-15T12:25:58.298Z,41.28
2018-06-15T12:28:32.874Z,45.02
2018-06-15T12:31:07.877Z,45.79
2018-06-15T12:33:42.400Z,45.13
2018-06-15T12:36:16.778Z,41.97
2018-06-15T12:38:51.244Z,41.26
2018-06-15T12:41:25.781Z,39.35
2018-06-15T12:44:00.173Z,42.80
2018-06-15T12:46:34.537Z,43.94
2018-06-15T12:49:09.006Z,43.14
2018-06-15T12:51:43.557Z,42.22
2018-06-15T12:54:17.954Z,45.41
2018-06-15T12:57:15.099Z,44.71
2018-06-15T12:59:49.744Z,43.31
2018-06-15T13:02:24.308Z,42.19
2018-06-15T13:04:59.048Z,43.94
2018-06-15T13:07:33.893Z,42.61
2018-06-15T13:10:08.405Z,41.15
2018-06-15T13:12:43.265Z,39.99
2018-06-15T13:15:17.721Z,41.56
2018-06-15T13:17:52.179Z,43.84
2018-06-15T13:20:26.784Z,43.80
2018-06-15T13:23:01.245Z,43.70
2018-06-15T13:25:35.608Z,44.33
2018-06-15T13:28:09.901Z,44.39
2018-06-15T13:30:44.511Z,43.16
2018-06-15T13:33:18.865Z,43.90
2018-06-15T13:35:53.449Z,45.20
2018-06-15T13:38:28.188Z,41.38
2018-06-15T13:41:02.848Z,41.10
2018-06-15T13:43:37.269Z,41.63
2018-06-15T13:46:12.149Z,39.74
2018-06-15T13:48:46.628Z,37.50
2018-06-15T13:51:21.036Z,38.27
2018-06-15T13:53:55.480Z,41.26
2018-06-15T13:56:30.093Z,42.89
2018-06-15T13:59:04.401Z,38.10
2018-06-15T14:01:38.959Z,38.46
2018-06-15T14:04:13.803Z,40.47
2018-06-15T14:06:48.399Z,39.35
2018-06-15T14:09:22.867Z,37.95
2018-06-15T14:11:57.500Z,38.49
2018-06-15T14:14:32.056Z,41.91
2018-06-15T14:17:06.524Z,43.21
2018-06-15T14:19:40.852Z,43.69
2018-06-15T14:22:15.309Z,45.96
2018-06-15T14:24:49.760Z,43.92
2018-06-15T14:27:24.410Z,43.82
2018-06-15T14:29:58.927Z,44.12
2018-06-15T14:32:33.652Z,43.98
2018-06-15T14:35:08.265Z,44.19
2018-06-15T14:37:43.033Z,45.44
2018-06-15T14:40:17.545Z,44.85
2018-06-15T14:42:52.172Z,44.01
2018-06-15T14:45:26.645Z,46.43
2018-06-15T14:48:01.333Z,40.68
2018-06-15T14:50:35.908Z,38.33
2018-06-15T14:53:10.221Z,34.33
2018-06-15T14:55:44.639Z,33.98
2018-06-15T14:58:19.061Z,35.95
2018-06-15T15:00:53.592Z,36.80
2018-06-15T15:03:27.945Z,34.93
2018-06-15T15:06:02.432Z,32.79
2018-06-15T15:08:37.004Z,34.51
2018-06-15T15:11:11.440Z,32.62
2018-06-15T15:13:46.050Z,32.22
2018-06-15T15:16:20.968Z,36.78
2018-06-15T15:18:55.637Z,41.04
2018-06-15T15:21:30.081Z,40.24
2018-06-15T15:24:04.480Z,40.24
2018-06-15T15:26:39.032Z,42.07
2018-06-15T15:29:13.722Z,40.43
2018-06-15T15:31:48.209Z,40.63
2018-06-15T15:34:22.668Z,43.04
2018-06-15T15:36:57.148Z,42.85
2018-06-15T15:39:31.589Z,41.21
2018-06-15T15:42:06.241Z,40.99
2018-06-15T15:44:40.742Z,43.09
2018-06-15T15:47:15.457Z,43.81
2018-06-15T15:49:49.829Z,43.78
2018-06-15T15:52:24.388Z,44.45
2018-06-15T15:54:58.829Z,42.43
2018-06-15T15:57:33.348Z,42.73
2018-06-15T16:00:07.832Z,43.03
2018-06-15T16:02:42.157Z,43.48
2018-06-15T16:05:16.649Z,42.39
2018-06-15T16:07:51.169Z,42.40
2018-06-15T16:10:25.759Z,41.40
2018-06-15T16:13:00.224Z,40.59
2018-06-15T16:15:34.661Z,41.02
2018-06-15T16:18:09.240Z,43.10
2018-06-15T16:20:43.642Z,42.03
2018-06-15T16:23:18.345Z,42.74
2018-06-15T16:25:52.970Z,43.67
2018-06-15T16:28:27.537Z,43.18
2018-06-15T16:31:02.292Z,42.13
2018-06-15T16:33:36.712Z,41.35
2018-06-15T16:36:11.259Z,43.24
2018-06-15T16:38:45.625Z,43.40
2018-06-15T16:41:19.972Z,43.15
2018-06-15T16:43:54.504Z,44.21
2018-06-15T16:46:28.949Z,42.79
2018-06-15T16:49:03.689Z,43.29
2018-06-15T16:51:38.504Z,43.37
2018-06-15T16:54:13.049Z,44.21
2018-06-15T16:56:47.997Z,43.78
2018-06-15T16:59:22.569Z,44.88
2018-06-15T17:01:56.945Z,45.50
2018-06-15T17:04:31.254Z,46.43
2018-06-15T17:07:05.908Z,46.33
2018-06-15T17:09:40.427Z,45.60
2018-06-15T17:12:14.809Z,45.11
2018-06-15T17:14:49.618Z,45.67
2018-06-15T17:17:24.064Z,45.66
2018-06-15T17:19:58.837Z,45.43
2018-06-15T17:22:33.393Z,45.72
2018-06-15T17:25:07.873Z,45.27
2018-06-15T17:27:42.364Z,44.60
2018-06-15T17:30:16.761Z,44.47
2018-06-15T17:32:51.387Z,44.02
2018-06-15T17:35:26.176Z,44.22
2018-06-15T17:38:00.783Z,43.80
2018-06-15T17:40:35.217Z,42.43
2018-06-15T17:43:10.049Z,45.01
2018-06-15T17:45:44.425Z,41.79
2018-06-15T17:48:19.004Z,41.53
2018-06-15T17:50:53.532Z,43.09
2018-06-15T17:53:28.105Z,43.00
2018-06-15T17:56:02.636Z,44.86
2018-06-15T17:58:37.141Z,43.39
2018-06-15T18:01:11.833Z,44.58
2018-06-15T18:03:46.364Z,44.00
2018-06-15T18:06:20.889Z,45.37
2018-06-15T18:08:55.546Z,45.13
2018-06-15T18:11:30.036Z,47.99
2018-06-15T18:14:04.468Z,47.36
2018-06-15T18:16:38.897Z,46.90
2018-06-15T18:19:13.429Z,47.41
2018-06-15T18:21:48.128Z,48.33
2018-06-15T18:24:22.766Z,49.42
2018-06-15T18:26:57.297Z,49.47
2018-06-15T18:29:31.831Z,49.37
2018-06-15T18:32:06.919Z,49.64
2018-06-15T18:34:41.637Z,49.84
2018-06-15T18:37:16.160Z,48.88
2018-06-15T18:39:50.760Z,51.33
2018-06-15T18:42:25.362Z,50.89
2018-06-15T18:44:59.841Z,52.45
2018-06-15T18:47:34.508Z,50.59
2018-06-15T18:50:08.997Z,51.47
2018-06-15T18:52:43.572Z,53.73
2018-06-15T18:55:18.186Z,52.16
2018-06-15T18:57:59.421Z,53.25
2018-06-15T19:00:34.061Z,51.53
2018-06-15T19:03:08.439Z,50.13
2018-06-15T19:05:43.264Z,50.95
2018-06-15T19:08:17.596Z,52.94
2018-06-15T19:10:52.360Z,53.24
2018-06-15T19:13:26.724Z,52.48
2018-06-15T19:16:01.389Z,52.59
2018-06-15T19:18:35.761Z,53.24
2018-06-15T19:21:10.486Z,52.80
2018-06-15T19:23:45.401Z,53.42
2018-06-15T19:26:20.452Z,55.76
2018-06-15T19:28:54.946Z,55.05
2018-06-15T19:31:29.420Z,54.55
2018-06-15T19:34:03.945Z,55.44
2018-06-15T19:36:38.509Z,56.18
2018-06-15T19:39:12.974Z,56.34
2018-06-15T19:41:47.404Z,56.01
2018-06-15T19:44:21.908Z,56.82
2018-06-15T19:46:56.536Z,56.91
2018-06-15T19:49:31.225Z,56.03
2018-06-15T19:52:06.288Z,56.15
2018-06-15T19:54:40.775Z,54.79
2018-06-15T19:57:15.540Z,53.66
2018-06-15T19:59:50.124Z,54.41
2018-06-15T20:02:24.524Z,55.05
2018-06-15T20:04:58.998Z,54.76
2018-06-15T20:07:33.533Z,55.26
2018-06-15T20:10:08.090Z,56.45
2018-06-15T20:12:42.537Z,56.64
2018-06-15T20:15:17.112Z,55.10
2018-06-15T20:17:51.772Z,56.88
2018-06-15T20:20:26.185Z,56.06
2018-06-15T20:23:00.712Z,57.74
2018-06-15T20:25:35.133Z,57.56
2018-06-15T20:28:09.772Z,58.05
2018-06-15T20:30:44.398Z,57.79
2018-06-15T20:33:18.952Z,57.42
2018-06-15T20:35:53.495Z,57.00
2018-06-15T20:38:27.927Z,57.34
2018-06-15T20:41:02.270Z,57.72
2018-06-15T20:43:36.683Z,58.07
2018-06-15T20:46:11.037Z,58.79
2018-06-15T20:48:45.764Z,58.15
2018-06-15T20:51:20.166Z,57.62
2018-06-15T20:53:54.564Z,57.35
2018-06-15T20:56:29.389Z,56.73
2018-06-15T20:59:03.908Z,56.27
2018-06-15T21:01:38.321Z,55.74
2018-06-15T21:04:13.144Z,56.01
2018-06-15T21:06:47.732Z,55.08
2018-06-15T21:09:22.113Z,54.67
2018-06-15T21:11:56.732Z,54.69
2018-06-15T21:14:31.262Z,55.30
2018-06-15T21:17:06.028Z,55.12
2018-06-15T21:19:40.761Z,55.20
2018-06-15T21:22:15.869Z,54.79
2018-06-15T21:24:50.761Z,54.19
2018-06-15T21:27:25.180Z,53.71
2018-06-15T21:29:59.972Z,53.84
2018-06-15T21:32:34.657Z,54.20
2018-06-15T21:35:09.228Z,54.11
2018-06-15T21:37:43.735Z,54.64
2018-06-15T21:40:18.327Z,54.22
2018-06-15T21:42:53.053Z,54.19
2018-06-15T21:45:27.396Z,54.42
2018-06-15T21:48:01.737Z,54.18
2018-06-15T21:50:36.121Z,54.04
2018-06-15T21:53:10.574Z,54.50
2018-06-15T21:55:45.084Z,54.42
2018-06-15T21:58:19.717Z,54.33
2018-06-15T22:00:54.204Z,55.64
2018-06-15T22:03:28.526Z,54.21
2018-06-15T22:06:02.893Z,54.90
2018-06-15T22:08:37.855Z,53.66
2018-06-15T22:11:12.603Z,55.53
2018-06-15T22:13:47.065Z,58.47
2018-06-15T22:16:21.522Z,57.53
2018-06-15T22:18:56.016Z,58.38
2018-06-15T22:21:30.538Z,58.70
2018-06-15T22:24:05.007Z,55.82
2018-06-15T22:26:39.369Z,54.70
2018-06-15T22:29:14.732Z,54.01
2018-06-15T22:31:49.292Z,53.56
2018-06-15T22:34:23.751Z,53.74
2018-06-15T22:36:58.180Z,54.14
2018-06-15T22:39:32.677Z,54.65
2018-06-15T22:42:07.061Z,54.76
2018-06-15T22:44:44.272Z,54.91
2018-06-15T22:47:18.696Z,54.80
2018-06-15T22:49:53.255Z,55.29
2018-06-15T22:52:27.672Z,55.09
2018-06-15T22:55:02.305Z,55.44
2018-06-15T22:57:36.845Z,55.18
2018-06-15T23:00:12.124Z,54.48
2018-06-15T23:02:46.911Z,55.48
2018-06-15T23:05:21.533Z,55.45
2018-06-15T23:07:55.884Z,56.10
2018-06-15T23:10:30.289Z,57.23
2018-06-15T23:13:05.147Z,58.54
2018-06-15T23:15:39.592Z,58.67
2018-06-15T23:18:14.004Z,58.93
2018-06-15T23:20:48.837Z,59.21
2018-06-15T23:23:23.328Z,58.88
2018-06-15T23:25:57.678Z,59.30
2018-06-15T23:28:32.172Z,58.89
2018-06-15T23:31:06.564Z,59.42
2018-06-15T23:33:41.095Z,59.74
2018-06-15T23:36:15.471Z,59.49
2018-06-15T23:38:49.880Z,59.22
2018-06-15T23:41:24.718Z,59.62
2018-06-15T23:43:59.284Z,59.62
2018-06-15T23:46:33.728Z,60.55
2018-06-15T23:49:08.267Z,60.24
2018-06-15T23:51:42.632Z,61.20
2018-06-15T23:54:17.145Z,63.86
2018-06-15T23:56:51.493Z,62.62
2018-06-15T23:59:25.872Z,61.86
